Bonito Airport


Codes: SBDB/BYO
Name: Bonito Airport
City: Bonito
Country: Brazil
Elevation: 1180 ft.
Wikipedia:

Photos at Bonito Airport


   Photos courtesy of SpottingLog. You can add your own sightings and photos by signing up for a free trial today.



No photos found.

Weather at Bonito Airport


Time (UTC)DescriptionTempratureWindCloud coverageVisibilityPressureHumidity
21-Jun-2024 12:00Broken Clouds21°C7 mph, NE53%10000m1013hPa43%
21-Jun-2024 15:00Scattered Clouds24°C11 mph, NE43%10000m1013hPa36%
21-Jun-2024 18:00Scattered Clouds29°C11 mph, N36%10000m1010hPa27%
21-Jun-2024 21:00Clear Sky29°C7 mph, N9%10000m1007hPa25%
22-Jun-2024 00:00Scattered Clouds23°C4 mph, N33%10000m1009hPa36%
22-Jun-2024 03:00Broken Clouds21°C4 mph, N62%10000m1010hPa43%
22-Jun-2024 06:00Scattered Clouds18°C2 mph, N47%10000m1009hPa49%
22-Jun-2024 09:00Scattered Clouds17°C4 mph, NE32%10000m1009hPa52%
22-Jun-2024 12:00Scattered Clouds22°C9 mph, NE38%10000m1012hPa41%
22-Jun-2024 15:00Broken Clouds31°C13 mph, N74%10000m1010hPa27%
22-Jun-2024 18:00Broken Clouds34°C13 mph, N80%10000m1006hPa22%
22-Jun-2024 21:00Scattered Clouds31°C7 mph, N26%10000m1006hPa27%
23-Jun-2024 00:00Broken Clouds25°C4 mph, N62%10000m1008hPa38%
23-Jun-2024 03:00Scattered Clouds23°C4 mph, N42%10000m1008hPa43%
23-Jun-2024 06:00Few Clouds23°C7 mph, N21%10000m1008hPa41%
23-Jun-2024 09:00Clear Sky21°C7 mph, NE0%10000m1008hPa47%
23-Jun-2024 12:00Clear Sky23°C7 mph, NE0%10000m1011hPa42%
23-Jun-2024 15:00Clear Sky33°C11 mph, N0%10000m1010hPa26%
23-Jun-2024 18:00Clear Sky36°C11 mph, N0%10000m1007hPa22%
23-Jun-2024 21:00Clear Sky31°C7 mph, N0%10000m1006hPa29%
24-Jun-2024 00:00Clear Sky25°C4 mph, N0%10000m1008hPa40%
24-Jun-2024 03:00Clear Sky24°C4 mph, N0%10000m1009hPa43%
24-Jun-2024 06:00Clear Sky23°C4 mph, N0%10000m1009hPa46%
24-Jun-2024 09:00Clear Sky22°C4 mph, N0%10000m1009hPa48%
24-Jun-2024 12:00Clear Sky26°C2 mph, N0%10000m1012hPa39%
24-Jun-2024 15:00Clear Sky35°C7 mph, W0%10000m1012hPa26%
24-Jun-2024 18:00Clear Sky35°C11 mph, W2%10000m1010hPa28%
24-Jun-2024 21:00Clear Sky30°C9 mph, SW2%10000m1012hPa43%
25-Jun-2024 00:00Clear Sky20°C11 mph, SW1%10000m1017hPa75%
25-Jun-2024 03:00Few Clouds16°C11 mph, SW12%10000m1018hPa86%
25-Jun-2024 06:00Few Clouds15°C9 mph, SW15%10000m1018hPa88%
25-Jun-2024 09:00Broken Clouds15°C7 mph, S70%10000m1018hPa83%
25-Jun-2024 12:00Broken Clouds17°C7 mph, SW83%10000m1020hPa77%
25-Jun-2024 15:00Overcast Clouds23°C4 mph, SW92%10000m1019hPa57%
25-Jun-2024 18:00Scattered Clouds28°C4 mph, S49%10000m1015hPa43%
25-Jun-2024 21:00Clear Sky24°C4 mph, S4%10000m1014hPa53%
26-Jun-2024 00:00Clear Sky18°C4 mph, SW2%10000m1016hPa73%
26-Jun-2024 03:00Clear Sky15°C4 mph, SW0%10000m1016hPa81%
26-Jun-2024 06:00Clear Sky13°C2 mph, SW1%10000m1014hPa86%
26-Jun-2024 09:00Clear Sky13°C2 mph, SW4%10000m1014hPa89%